Time;durP1;ratioP1;P1;durP2;ratioP2;P2;SDS_P1;SDS_P2;PMS_P1;PMS_P2;Temp;Humidity;BMP_temperature;BMP_pressure;BME280_temperature;BME280_humidity;BME280_pressure;Samples;Min_cycle;Max_cycle;Signal;HPM_P1;HPM_P2
2023/09/17 00:00:29;;;;;;;24.65;19.05;;;538.20;2406.40;;;;;;5027102;28;20385;-72
2023/09/17 00:02:55;;;;;;;24.08;19.23;;;538.20;2406.40;;;;;;5024486;28;20026;-71
2023/09/17 00:05:22;;;;;;;22.50;18.70;;;538.20;2406.40;;;;;;5022370;28;20026;-72
2023/09/17 00:07:48;;;;;;;23.42;18.65;;;538.10;2406.40;;;;;;5023652;28;20478;-72
2023/09/17 00:10:13;;;;;;;22.83;18.02;;;538.10;2406.40;;;;;;5021448;28;20034;-73
2023/09/17 00:12:39;;;;;;;21.85;18.40;;;538.10;2406.40;;;;;;5023169;28;20029;-72
2023/09/17 00:15:06;;;;;;;23.75;18.63;;;538.00;2406.40;;;;;;5023156;28;20030;-72
2023/09/17 00:17:32;;;;;;;23.00;18.92;;;538.00;2406.40;;;;;;5022757;28;20022;-73
2023/09/17 00:19:58;;;;;;;26.48;17.55;;;538.00;2406.40;;;;;;5025004;28;20520;-72
2023/09/17 00:22:24;;;;;;;21.55;19.10;;;538.00;2406.40;;;;;;5025678;28;20025;-72
2023/09/17 00:24:50;;;;;;;26.63;18.80;;;538.00;2406.40;;;;;;5027214;28;20028;-72
2023/09/17 00:27:15;;;;;;;23.77;18.80;;;538.00;2406.40;;;;;;5011924;28;20033;-73
2023/09/17 00:29:41;;;;;;;21.65;17.13;;;538.00;2406.40;;;;;;5020903;28;20076;-72
2023/09/17 00:32:07;;;;;;;23.42;19.13;;;538.00;2406.40;;;;;;5024463;28;20137;-72
2023/09/17 00:34:33;;;;;;;24.60;17.92;;;537.90;2406.40;;;;;;5027427;28;20022;-72
2023/09/17 00:37:00;;;;;;;23.50;18.00;;;537.80;2406.40;;;;;;5020602;28;20116;-73
2023/09/17 00:39:27;;;;;;;22.38;17.95;;;537.90;2406.40;;;;;;5024235;28;20033;-72
2023/09/17 00:41:53;;;;;;;21.55;18.15;;;537.90;2406.40;;;;;;5024609;28;20052;-72
2023/09/17 00:44:19;;;;;;;24.55;19.00;;;538.00;2406.40;;;;;;5017308;28;20030;-72
2023/09/17 00:46:46;;;;;;;22.35;18.02;;;537.90;2406.40;;;;;;5026912;28;20026;-72
2023/09/17 00:49:14;;;;;;;26.15;19.48;;;537.80;2406.40;;;;;;5022327;28;20025;-73
2023/09/17 00:51:43;;;;;;;24.73;17.85;;;537.80;2406.40;;;;;;5019697;28;20030;-73
2023/09/17 00:54:11;;;;;;;28.52;20.23;;;537.80;2406.40;;;;;;5026305;28;20036;-73
2023/09/17 00:56:37;;;;;;;26.00;20.80;;;537.80;2406.40;;;;;;5032944;28;20096;-73
2023/09/17 00:59:05;;;;;;;29.02;18.25;;;537.80;2406.40;;;;;;5029345;28;20030;-72
2023/09/17 01:01:32;;;;;;;22.05;19.13;;;537.80;2406.40;;;;;;5013613;28;20500;-73
2023/09/17 01:03:59;;;;;;;25.38;20.92;;;537.80;2406.40;;;;;;5013369;28;20073;-73
2023/09/17 01:06:25;;;;;;;23.98;20.00;;;537.70;2406.40;;;;;;5013253;28;20033;-74
2023/09/17 01:08:51;;;;;;;23.77;19.17;;;537.70;2406.40;;;;;;5013383;28;20033;-72
2023/09/17 01:11:18;;;;;;;25.23;18.85;;;537.70;2406.40;;;;;;5013244;28;20069;-74
2023/09/17 01:13:49;;;;;;;23.35;19.38;;;537.80;2406.40;;;;;;5013232;28;20026;-72
2023/09/17 01:16:16;;;;;;;24.92;19.30;;;537.70;2406.40;;;;;;5013212;28;20022;-73
2023/09/17 01:18:42;;;;;;;27.15;20.73;;;537.70;2406.40;;;;;;5013219;28;20445;-74
2023/09/17 01:21:33;;;;;;;22.95;19.17;;;537.60;2406.40;;;;;;5013100;28;20124;-73
2023/09/17 01:24:40;;;;;;;21.48;17.73;;;537.60;2406.40;;;;;;5013192;28;20026;-73
2023/09/17 01:27:07;;;;;;;21.10;17.30;;;537.60;2406.40;;;;;;5013164;28;20390;-72
2023/09/17 01:29:38;;;;;;;23.67;17.98;;;512.90;2380.80;;;;;;5013102;28;20018;-73
2023/09/17 01:32:05;;;;;;;20.73;17.48;;;512.90;2380.80;;;;;;5013245;28;20101;-73
2023/09/17 01:34:34;;;;;;;20.77;17.95;;;512.90;2380.80;;;;;;4995755;28;20433;-73
2023/09/17 01:37:02;;;;;;;20.10;16.17;;;512.90;2380.80;;;;;;5017049;28;20030;-72
2023/09/17 01:39:33;;;;;;;22.95;18.48;;;512.80;2380.80;;;;;;5017129;28;20022;-73
2023/09/17 01:42:02;;;;;;;22.05;17.40;;;512.80;2380.80;;;;;;5016808;28;20469;-72
2023/09/17 01:44:30;;;;;;;22.33;16.98;;;512.80;2380.80;;;;;;5016963;28;20100;-73
2023/09/17 01:46:58;;;;;;;23.75;17.25;;;512.70;2380.80;;;;;;5016926;28;20029;-73
2023/09/17 01:49:24;;;;;;;21.83;17.08;;;512.80;2380.80;;;;;;5016812;28;20030;-73
2023/09/17 01:51:52;;;;;;;23.10;16.73;;;512.70;2380.80;;;;;;5016969;28;20018;-73
2023/09/17 01:54:18;;;;;;;22.13;16.77;;;512.60;2380.80;;;;;;5016778;28;20386;-72
2023/09/17 01:56:44;;;;;;;25.85;17.65;;;512.60;2380.80;;;;;;5016782;28;20030;-74
2023/09/17 01:59:10;;;;;;;21.42;15.98;;;512.60;2380.80;;;;;;4982495;28;20497;-73
2023/09/17 02:01:35;;;;;;;21.67;17.30;;;512.60;2380.80;;;;;;5016821;28;20030;-73
2023/09/17 02:04:01;;;;;;;23.58;16.42;;;512.50;2380.80;;;;;;5016737;28;20103;-74
2023/09/17 02:06:27;;;;;;;20.92;16.40;;;512.50;2380.80;;;;;;5016456;28;20534;-73
2023/09/17 02:08:53;;;;;;;20.25;16.67;;;512.50;2380.80;;;;;;5016502;28;20087;-74
2023/09/17 02:11:19;;;;;;;22.67;17.23;;;512.40;2380.80;;;;;;5016351;28;20029;-73
2023/09/17 02:13:45;;;;;;;22.00;17.85;;;512.40;2380.80;;;;;;5016365;28;20496;-72
2023/09/17 02:16:10;;;;;;;22.63;16.73;;;512.40;2380.80;;;;;;5016594;28;20022;-73
2023/09/17 02:18:36;;;;;;;21.63;17.15;;;512.50;2380.80;;;;;;5016423;28;20490;-74
2023/09/17 02:21:01;;;;;;;24.92;18.00;;;512.50;2380.80;;;;;;5015949;28;20046;-73
2023/09/17 02:23:27;;;;;;;21.55;17.60;;;512.50;2380.80;;;;;;5016277;28;20026;-72
2023/09/17 02:25:53;;;;;;;22.42;16.88;;;512.50;2380.80;;;;;;5016202;28;20057;-73
2023/09/17 02:28:18;;;;;;;23.40;18.30;;;512.50;2380.80;;;;;;5016090;28;20042;-73
2023/09/17 02:30:44;;;;;;;23.23;18.23;;;512.60;2380.80;;;;;;5016307;28;20476;-72
2023/09/17 02:33:10;;;;;;;21.55;17.20;;;512.60;2380.80;;;;;;5016330;28;20113;-73
2023/09/17 02:35:37;;;;;;;21.15;17.52;;;512.70;2380.80;;;;;;5015952;28;20462;-74
2023/09/17 02:38:04;;;;;;;22.70;17.83;;;512.70;2380.80;;;;;;5026796;28;20048;-73
2023/09/17 02:40:30;;;;;;;22.50;18.15;;;512.80;2380.80;;;;;;5035749;28;20024;-73
2023/09/17 02:42:55;;;;;;;22.90;17.98;;;512.80;2380.80;;;;;;5035885;28;20033;-72
2023/09/17 02:45:21;;;;;;;23.33;19.10;;;512.80;2380.80;;;;;;5035509;28;20013;-72
2023/09/17 02:47:47;;;;;;;21.60;17.48;;;512.80;2380.80;;;;;;5035462;28;20041;-73
2023/09/17 02:50:12;;;;;;;20.35;17.60;;;512.80;2380.80;;;;;;5035349;28;20021;-74
2023/09/17 02:52:39;;;;;;;24.30;18.17;;;512.80;2380.80;;;;;;5035341;28;20038;-73
2023/09/17 02:55:05;;;;;;;22.77;16.92;;;512.80;2380.80;;;;;;5017554;28;20359;-72
2023/09/17 02:57:31;;;;;;;22.50;18.23;;;512.80;2380.80;;;;;;5035624;28;20028;-72
2023/09/17 02:59:57;;;;;;;24.83;18.58;;;512.80;2380.80;;;;;;5035190;28;20096;-73
2023/09/17 03:02:23;;;;;;;26.42;18.73;;;512.80;2380.80;;;;;;5035420;28;20037;-73
2023/09/17 03:04:52;;;;;;;27.10;18.67;;;512.80;2380.80;;;;;;5035145;28;20497;-73
2023/09/17 03:07:19;;;;;;;23.98;18.67;;;512.80;2380.80;;;;;;5017301;28;20025;-73
2023/09/17 03:09:45;;;;;;;25.80;18.13;;;512.80;2380.80;;;;;;5034883;28;20048;-73
2023/09/17 03:12:11;;;;;;;21.63;17.80;;;512.80;2380.80;;;;;;5035079;28;20014;-73
2023/09/17 03:14:37;;;;;;;24.55;16.83;;;512.80;2380.80;;;;;;5035095;28;20017;-73
2023/09/17 03:17:05;;;;;;;20.98;18.20;;;512.80;2380.80;;;;;;5035209;28;20029;-73
2023/09/17 03:19:31;;;;;;;22.02;17.30;;;512.70;2380.80;;;;;;5034426;28;20034;-73
2023/09/17 03:21:57;;;;;;;21.75;17.80;;;512.60;2380.80;;;;;;5035077;28;20477;-73
2023/09/17 03:24:22;;;;;;;21.83;17.38;;;512.60;2380.80;;;;;;5034798;28;20029;-73
2023/09/17 03:26:48;;;;;;;25.45;18.42;;;512.70;2380.80;;;;;;5034940;28;20027;-72
2023/09/17 03:29:14;;;;;;;24.92;18.17;;;512.60;2380.80;;;;;;5034447;28;20104;-73
2023/09/17 03:31:41;;;;;;;26.52;19.60;;;512.60;2380.80;;;;;;5034709;28;20205;-73
2023/09/17 03:34:07;;;;;;;23.02;18.33;;;512.60;2380.80;;;;;;5034451;28;20018;-73
2023/09/17 03:36:35;;;;;;;29.33;17.65;;;512.60;2380.80;;;;;;5035013;28;20026;-73
2023/09/17 03:39:01;;;;;;;28.52;19.60;;;512.70;2380.80;;;;;;5035011;28;20025;-73
2023/09/17 03:41:27;;;;;;;28.95;17.73;;;512.80;2380.80;;;;;;5034708;28;20018;-72
2023/09/17 03:43:53;;;;;;;27.38;18.17;;;512.70;2380.80;;;;;;5034206;28;20432;-73
2023/09/17 03:46:21;;;;;;;24.58;16.65;;;512.60;2380.80;;;;;;5034688;28;20026;-73
2023/09/17 03:48:47;;;;;;;25.65;17.90;;;512.60;2380.80;;;;;;5034134;28;20091;-74
2023/09/17 03:51:12;;;;;;;24.30;18.08;;;512.50;2380.80;;;;;;5034356;28;20022;-74
2023/09/17 03:53:39;;;;;;;21.83;17.52;;;512.50;2380.80;;;;;;5034183;28;20590;-72
2023/09/17 03:56:05;;;;;;;21.05;16.92;;;512.50;2380.80;;;;;;5034545;28;20100;-72
2023/09/17 03:58:31;;;;;;;22.23;17.90;;;512.50;2380.80;;;;;;5033459;28;20504;-72
2023/09/17 04:00:56;;;;;;;21.15;16.88;;;512.50;2380.80;;;;;;5034393;28;20018;-72
2023/09/17 04:03:22;;;;;;;23.52;17.67;;;512.60;2380.80;;;;;;5033880;28;20477;-72
2023/09/17 04:05:50;;;;;;;28.00;18.67;;;512.70;2380.80;;;;;;5034099;28;20030;-73
2023/09/17 04:08:16;;;;;;;24.35;17.45;;;512.60;2380.80;;;;;;5034163;28;20393;-72
2023/09/17 04:10:43;;;;;;;22.60;17.17;;;512.70;2380.80;;;;;;5033939;28;20021;-73
2023/09/17 04:13:12;;;;;;;22.83;18.35;;;512.60;2380.80;;;;;;5033931;28;20026;-75
2023/09/17 04:15:38;;;;;;;22.63;17.02;;;512.60;2380.80;;;;;;5033693;28;20028;-75
2023/09/17 04:18:05;;;;;;;21.83;18.23;;;512.50;2380.80;;;;;;5034106;28;20025;-72
2023/09/17 04:20:31;;;;;;;23.15;18.02;;;512.40;2380.80;;;;;;5033348;28;20050;-73
2023/09/17 04:22:56;;;;;;;25.73;17.65;;;512.40;2380.80;;;;;;5033771;28;20022;-72
2023/09/17 04:25:22;;;;;;;18.58;15.95;;;512.40;2380.80;;;;;;5033577;28;20144;-73
2023/09/17 04:27:49;;;;;;;20.55;17.40;;;512.50;2380.80;;;;;;5033527;28;20057;-72
2023/09/17 04:30:19;;;;;;;29.88;18.85;;;512.40;2380.80;;;;;;5033712;28;20130;-73
2023/09/17 04:32:46;;;;;;;21.73;17.33;;;512.40;2380.80;;;;;;5033400;28;20024;-73
2023/09/17 04:35:18;;;;;;;24.58;18.10;;;512.40;2380.80;;;;;;5033313;28;20049;-72
2023/09/17 04:37:46;;;;;;;27.48;18.98;;;512.30;2380.80;;;;;;5033761;28;20087;-72
2023/09/17 04:40:12;;;;;;;26.27;19.33;;;512.30;2380.80;;;;;;5033455;28;20021;-73
2023/09/17 04:42:40;;;;;;;25.95;18.42;;;512.40;2380.80;;;;;;5033540;28;20129;-73
2023/09/17 04:45:08;;;;;;;26.50;18.90;;;512.40;2380.80;;;;;;5031039;28;20063;-73
2023/09/17 04:47:34;;;;;;;25.33;17.83;;;512.60;2380.80;;;;;;5023270;28;20030;-73
2023/09/17 04:50:01;;;;;;;20.25;17.13;;;512.70;2380.80;;;;;;5032932;28;20041;-73
2023/09/17 04:52:27;;;;;;;27.42;18.20;;;512.70;2380.80;;;;;;5024105;28;20081;-74
2023/09/17 04:54:53;;;;;;;21.05;16.75;;;512.80;2380.80;;;;;;5029814;28;20024;-73
2023/09/17 04:57:19;;;;;;;23.17;18.50;;;512.90;2380.80;;;;;;5033112;28;20036;-72
2023/09/17 04:59:46;;;;;;;25.33;18.13;;;537.60;2406.40;;;;;;5033223;28;20025;-74
2023/09/17 05:02:14;;;;;;;24.90;18.52;;;512.90;2380.80;;;;;;5033401;28;20022;-73
2023/09/17 05:04:40;;;;;;;25.35;17.55;;;537.60;2406.40;;;;;;5033055;28;20461;-73
2023/09/17 05:07:06;;;;;;;24.77;18.20;;;537.60;2406.40;;;;;;5033324;28;20163;-72
2023/09/17 05:09:32;;;;;;;23.40;17.92;;;537.70;2406.40;;;;;;5032971;28;20025;-73
2023/09/17 05:11:58;;;;;;;22.48;18.08;;;537.70;2406.40;;;;;;5033244;28;20020;-74
2023/09/17 05:14:24;;;;;;;24.35;17.27;;;537.70;2406.40;;;;;;5033055;28;20021;-74
2023/09/17 05:16:49;;;;;;;25.52;19.08;;;537.90;2406.40;;;;;;5033138;28;20018;-73
2023/09/17 05:19:15;;;;;;;27.08;19.58;;;538.00;2406.40;;;;;;5032067;28;20490;-74
2023/09/17 05:21:41;;;;;;;25.25;16.83;;;538.00;2406.40;;;;;;5024787;28;20083;-72
2023/09/17 05:24:07;;;;;;;25.83;17.67;;;538.00;2406.40;;;;;;5019996;28;20040;-72
2023/09/17 05:26:33;;;;;;;25.08;18.90;;;538.10;2406.40;;;;;;5024192;28;20022;-72
2023/09/17 05:28:58;;;;;;;23.02;18.13;;;538.20;2406.40;;;;;;5020017;28;20048;-73
2023/09/17 05:31:24;;;;;;;24.02;18.85;;;538.20;2406.40;;;;;;5028926;28;20084;-73
2023/09/17 05:33:50;;;;;;;25.58;19.30;;;538.30;2406.40;;;;;;5018436;28;20079;-73
2023/09/17 05:36:16;;;;;;;22.02;18.67;;;538.30;2406.40;;;;;;5023224;28;20021;-73
2023/09/17 05:38:42;;;;;;;26.50;18.90;;;538.40;2406.40;;;;;;5021529;28;20373;-75
2023/09/17 05:41:10;;;;;;;27.95;19.55;;;538.50;2406.40;;;;;;5027024;28;20462;-74
2023/09/17 05:43:36;;;;;;;25.25;19.52;;;538.40;2406.40;;;;;;5024134;28;20020;-75
2023/09/17 05:46:01;;;;;;;25.60;18.00;;;538.50;2406.40;;;;;;5024216;28;20033;-74
2023/09/17 05:48:28;;;;;;;27.17;19.63;;;538.50;2406.40;;;;;;5019364;28;20025;-74
2023/09/17 05:50:53;;;;;;;29.45;19.33;;;563.20;2432.00;;;;;;5027327;28;20029;-74
2023/09/17 05:53:19;;;;;;;28.00;19.52;;;563.20;2432.00;;;;;;5011230;28;20038;-74
2023/09/17 05:55:45;;;;;;;27.95;17.98;;;563.40;2432.00;;;;;;5018601;28;20065;-74
2023/09/17 05:58:11;;;;;;;26.95;19.35;;;563.40;2432.00;;;;;;5020814;28;20478;-74
2023/09/17 06:00:37;;;;;;;28.25;19.50;;;563.60;2432.00;;;;;;5030494;28;20032;-74
2023/09/17 06:03:03;;;;;;;25.77;18.77;;;563.70;2432.00;;;;;;5028622;28;20025;-73
2023/09/17 06:05:28;;;;;;;31.90;20.02;;;563.80;2432.00;;;;;;5020472;28;20021;-73
2023/09/17 06:07:54;;;;;;;26.23;18.88;;;563.90;2432.00;;;;;;5021958;28;20351;-74
2023/09/17 06:10:21;;;;;;;25.20;18.88;;;563.80;2432.00;;;;;;5026035;28;20032;-73
2023/09/17 06:12:47;;;;;;;22.95;17.42;;;563.80;2432.00;;;;;;5023591;28;20101;-71
2023/09/17 06:15:13;;;;;;;28.67;18.83;;;564.00;2432.00;;;;;;5021843;28;20116;-72
2023/09/17 06:17:39;;;;;;;25.70;17.88;;;564.00;2432.00;;;;;;5021718;28;20108;-73
2023/09/17 06:20:05;;;;;;;23.50;18.63;;;564.10;2432.00;;;;;;5032276;28;20042;-74
2023/09/17 06:22:32;;;;;;;21.75;17.88;;;564.10;2432.00;;;;;;5023046;28;20030;-74
2023/09/17 06:24:58;;;;;;;23.10;17.90;;;564.10;2432.00;;;;;;5025124;28;20026;-74
2023/09/17 06:27:23;;;;;;;24.75;17.63;;;564.00;2432.00;;;;;;5031119;28;20036;-73
2023/09/17 06:29:49;;;;;;;23.98;17.00;;;564.10;2432.00;;;;;;5026024;28;20034;-73
2023/09/17 06:32:15;;;;;;;22.23;17.10;;;563.90;2432.00;;;;;;5025006;28;20091;-74
2023/09/17 06:34:41;;;;;;;26.15;17.25;;;564.10;2432.00;;;;;;5023111;28;20037;-74
2023/09/17 06:37:07;;;;;;;20.77;15.55;;;564.10;2432.00;;;;;;5025099;28;20371;-73
2023/09/17 06:39:33;;;;;;;27.67;16.20;;;564.10;2432.00;;;;;;5029235;28;20423;-74
2023/09/17 06:41:58;;;;;;;22.08;15.68;;;588.90;2432.00;;;;;;5023305;28;20030;-73
2023/09/17 06:44:24;;;;;;;20.33;15.18;;;588.80;2432.00;;;;;;5026199;28;20101;-73
2023/09/17 06:46:51;;;;;;;17.83;15.05;;;588.90;2432.00;;;;;;5029746;28;20022;-74
2023/09/17 06:49:16;;;;;;;25.13;14.40;;;588.90;2432.00;;;;;;5021189;28;20459;-73
2023/09/17 06:51:42;;;;;;;19.35;14.43;;;588.90;2432.00;;;;;;5025443;28;20058;-73
2023/09/17 06:54:08;;;;;;;18.88;13.85;;;589.00;2432.00;;;;;;5028488;28;20079;-73
2023/09/17 06:56:34;;;;;;;21.55;14.05;;;589.10;2432.00;;;;;;5025797;28;20056;-73
2023/09/17 06:58:59;;;;;;;16.10;13.38;;;589.10;2432.00;;;;;;5026115;28;20061;-73
2023/09/17 07:01:25;;;;;;;20.92;12.77;;;589.20;2432.00;;;;;;5029712;28;20031;-73
2023/09/17 07:03:52;;;;;;;24.92;14.25;;;589.20;2432.00;;;;;;5029247;28;20049;-74
2023/09/17 07:06:18;;;;;;;22.60;13.93;;;589.30;2432.00;;;;;;5022392;28;20018;-74
2023/09/17 07:08:44;;;;;;;25.23;14.25;;;589.20;2432.00;;;;;;5025639;28;20035;-73
2023/09/17 07:11:10;;;;;;;21.30;13.75;;;589.30;2432.00;;;;;;5006943;28;20025;-74
2023/09/17 07:13:38;;;;;;;20.98;13.35;;;589.30;2432.00;;;;;;5007028;28;20069;-73
2023/09/17 07:16:05;;;;;;;18.65;13.57;;;589.30;2432.00;;;;;;5026310;28;20081;-74
2023/09/17 07:18:31;;;;;;;18.60;14.77;;;589.20;2432.00;;;;;;5024191;28;20092;-74
2023/09/17 07:20:57;;;;;;;19.27;14.40;;;589.30;2432.00;;;;;;5007718;28;20141;-74
2023/09/17 07:23:23;;;;;;;17.08;13.85;;;589.30;2432.00;;;;;;5001984;28;20026;-73
2023/09/17 07:25:50;;;;;;;16.90;13.40;;;589.30;2432.00;;;;;;5004598;28;20026;-73
2023/09/17 07:28:16;;;;;;;18.92;13.63;;;589.50;2432.00;;;;;;5011951;28;20037;-74
2023/09/17 07:30:42;;;;;;;16.95;13.40;;;589.50;2432.00;;;;;;5005867;28;20101;-74
2023/09/17 07:33:08;;;;;;;19.40;13.00;;;589.50;2432.00;;;;;;5004439;28;20104;-75
2023/09/17 07:35:38;;;;;;;16.52;13.27;;;589.60;2432.00;;;;;;5004900;28;20022;-73
2023/09/17 07:38:04;;;;;;;21.92;13.88;;;589.70;2432.00;;;;;;5006020;28;20071;-74
2023/09/17 07:40:30;;;;;;;12.95;10.23;;;589.70;2432.00;;;;;;5006132;28;20022;-72
2023/09/17 07:42:56;;;;;;;12.82;10.10;;;589.70;2432.00;;;;;;5002907;28;20037;-74
2023/09/17 07:45:22;;;;;;;18.98;12.60;;;589.70;2432.00;;;;;;5004883;28;20022;-74
2023/09/17 07:47:47;;;;;;;17.42;11.00;;;614.40;2432.00;;;;;;4999724;28;20026;-73
2023/09/17 07:50:13;;;;;;;15.68;10.30;;;614.50;2432.00;;;;;;5009922;28;20049;-74
2023/09/17 07:52:40;;;;;;;15.77;10.02;;;614.50;2432.00;;;;;;5005312;28;20034;-74
2023/09/17 07:55:06;;;;;;;12.23;9.32;;;614.50;2432.00;;;;;;5007653;28;20097;-74
2023/09/17 07:57:32;;;;;;;10.20;9.05;;;614.60;2432.00;;;;;;5004085;28;20021;-74
2023/09/17 07:59:57;;;;;;;16.63;11.27;;;614.70;2432.00;;;;;;5004847;28;20025;-74
2023/09/17 08:02:23;;;;;;;13.52;10.30;;;614.90;2432.00;;;;;;5007273;28;20089;-75
2023/09/17 08:04:49;;;;;;;15.63;11.15;;;615.00;2432.00;;;;;;5001111;28;20068;-74
2023/09/17 08:07:16;;;;;;;14.60;9.98;;;615.00;2432.00;;;;;;5004444;28;20362;-75
2023/09/17 08:09:42;;;;;;;13.30;8.23;;;614.90;2432.00;;;;;;5005588;28;20034;-75
2023/09/17 08:12:08;;;;;;;13.85;8.38;;;615.00;2432.00;;;;;;5003418;28;20029;-75
2023/09/17 08:14:34;;;;;;;10.10;8.35;;;615.10;2432.00;;;;;;5005208;28;20058;-73
2023/09/17 08:17:01;;;;;;;11.07;7.80;;;640.20;2432.00;;;;;;5009831;28;20467;-74
2023/09/17 08:19:27;;;;;;;11.57;7.65;;;640.20;2432.00;;;;;;5006791;28;20030;-75
2023/09/17 08:21:52;;;;;;;11.32;8.52;;;640.60;2432.00;;;;;;5029016;28;20171;-75
2023/09/17 08:24:20;;;;;;;12.38;8.18;;;640.60;2432.00;;;;;;5029871;28;20359;-74
2023/09/17 08:26:47;;;;;;;13.10;8.25;;;640.80;2432.00;;;;;;5029462;28;20033;-74
2023/09/17 08:29:13;;;;;;;12.10;8.07;;;666.10;2432.00;;;;;;5023767;28;20030;-74
2023/09/17 08:31:38;;;;;;;17.63;8.90;;;666.30;2432.00;;;;;;5021209;28;20040;-75
2023/09/17 08:34:05;;;;;;;10.80;7.80;;;;;;;;;;5022106;28;20040;-75
2023/09/17 08:36:32;;;;;;;11.05;8.48;;;691.30;2432.00;;;;;;5025882;28;20037;-73
2023/09/17 08:38:58;;;;;;;11.85;8.18;;;691.20;2432.00;;;;;;5026361;28;20014;-74
2023/09/17 08:41:23;;;;;;;13.43;8.73;;;666.30;2432.00;;;;;;5021975;28;20026;-75
2023/09/17 08:43:52;;;;;;;12.85;8.23;;;691.20;2432.00;;;;;;5021378;28;20021;-74
2023/09/17 08:46:21;;;;;;;11.68;7.75;;;691.70;2432.00;;;;;;5023143;28;20443;-74
2023/09/17 08:48:47;;;;;;;12.27;8.02;;;691.40;2432.00;;;;;;5022638;28;20492;-75
2023/09/17 08:51:17;;;;;;;8.90;6.50;;;691.30;2432.00;;;;;;5025845;28;20030;-73
2023/09/17 08:54:02;;;;;;;9.07;7.38;;;691.40;2432.00;;;;;;5021627;28;20035;-75
2023/09/17 08:56:30;;;;;;;12.23;7.03;;;691.60;2432.00;;;;;;5017838;28;20021;-75
2023/09/17 08:59:01;;;;;;;12.63;7.80;;;691.50;2432.00;;;;;;5021054;28;20045;-74
2023/09/17 09:01:27;;;;;;;10.02;8.00;;;691.30;2432.00;;;;;;5008506;28;20033;-73
2023/09/17 09:03:54;;;;;;;9.65;7.85;;;666.50;2432.00;;;;;;5023671;28;20088;-74
2023/09/17 09:06:26;;;;;;;8.32;6.95;;;666.40;2432.00;;;;;;5024873;28;20091;-74
2023/09/17 09:08:52;;;;;;;9.93;6.82;;;666.30;2432.00;;;;;;5025427;28;20064;-73
2023/09/17 09:11:19;;;;;;;7.68;6.47;;;666.20;2432.00;;;;;;5026069;28;20037;-73
2023/09/17 09:13:47;;;;;;;10.68;6.57;;;666.00;2432.00;;;;;;5018391;28;20029;-72
2023/09/17 09:16:15;;;;;;;7.28;6.47;;;665.90;2432.00;;;;;;5020394;28;20026;-73
2023/09/17 09:18:40;;;;;;;14.27;6.97;;;666.20;2432.00;;;;;;5028915;28;20473;-73
2023/09/17 09:21:08;;;;;;;7.82;6.40;;;666.40;2432.00;;;;;;5019387;28;20072;-73
2023/09/17 09:23:34;;;;;;;10.57;6.57;;;666.20;2432.00;;;;;;5020265;28;20014;-73
2023/09/17 09:25:59;;;;;;;8.98;7.30;;;666.20;2432.00;;;;;;5020056;28;20362;-74
2023/09/17 09:28:30;;;;;;;9.10;7.63;;;666.20;2432.00;;;;;;5023750;28;20030;-74
2023/09/17 09:30:57;;;;;;;10.48;7.20;;;666.10;2432.00;;;;;;5026720;28;20021;-73
2023/09/17 09:33:23;;;;;;;10.73;7.65;;;666.20;2432.00;;;;;;5026817;28;20393;-73
2023/09/17 09:35:49;;;;;;;12.25;8.85;;;666.30;2432.00;;;;;;5026714;28;20024;-73
2023/09/17 09:38:16;;;;;;;8.50;6.80;;;;;;;;;;5023136;28;20101;-74
2023/09/17 09:40:43;;;;;;;8.32;6.88;;;716.90;2432.00;;;;;;5022106;28;20075;-73
2023/09/17 09:43:31;;;;;;;7.93;6.57;;;692.10;2432.00;;;;;;5020827;28;20033;-74
2023/09/17 09:46:02;;;;;;;8.75;6.82;;;692.00;2432.00;;;;;;5026322;28;20430;-74
2023/09/17 09:48:28;;;;;;;9.70;6.65;;;691.80;2432.00;;;;;;5023766;28;20038;-76
2023/09/17 09:50:55;;;;;;;8.15;6.35;;;691.60;2432.00;;;;;;5022874;28;20097;-74
2023/09/17 09:53:21;;;;;;;13.43;6.13;;;691.60;2432.00;;;;;;5015538;28;20021;-74
2023/09/17 09:55:48;;;;;;;8.40;6.32;;;691.60;2432.00;;;;;;5021666;28;20029;-74
2023/09/17 09:58:14;;;;;;;8.23;6.07;;;691.60;2432.00;;;;;;5029758;28;20108;-73
2023/09/17 10:00:44;;;;;;;9.30;7.18;;;691.60;2432.00;;;;;;5025139;28;20022;-74
2023/09/17 10:03:12;;;;;;;10.07;7.07;;;691.30;2432.00;;;;;;5030197;28;20584;-73
2023/09/17 10:05:39;;;;;;;9.20;6.85;;;691.30;2432.00;;;;;;5030235;28;20017;-74
2023/09/17 10:08:08;;;;;;;12.13;7.00;;;691.40;2432.00;;;;;;5024790;28;20029;-72
2023/09/17 10:10:38;;;;;;;11.68;6.93;;;691.60;2432.00;;;;;;5023624;28;20589;-73
2023/09/17 10:13:08;;;;;;;10.25;7.15;;;691.60;2432.00;;;;;;5024418;28;20064;-74
2023/09/17 10:15:39;;;;;;;10.00;6.82;;;691.60;2432.00;;;;;;5028398;28;20056;-74
2023/09/17 10:18:08;;;;;;;7.85;6.47;;;691.50;2432.00;;;;;;5026763;28;20022;-74
2023/09/17 10:20:34;;;;;;;10.20;6.57;;;691.30;2432.00;;;;;;5000715;28;20053;-75
2023/09/17 10:23:02;;;;;;;8.45;6.28;;;691.50;2432.00;;;;;;5031342;28;20029;-73
2023/09/17 10:25:30;;;;;;;7.32;6.18;;;691.80;2432.00;;;;;;5033055;28;20028;-74
2023/09/17 10:27:56;;;;;;;7.03;6.13;;;691.60;2432.00;;;;;;5024030;28;20087;-74
2023/09/17 10:30:22;;;;;;;7.25;6.43;;;691.60;2432.00;;;;;;5034597;28;20064;-74
2023/09/17 10:32:50;;;;;;;12.65;6.00;;;691.60;2432.00;;;;;;5030972;28;20014;-74
2023/09/17 10:35:16;;;;;;;9.63;6.22;;;691.90;2432.00;;;;;;5022972;28;20017;-73
2023/09/17 10:37:43;;;;;;;9.05;6.90;;;;;;;;;;5019794;28;20030;-75
2023/09/17 10:40:10;;;;;;;9.57;6.75;;;717.50;2432.00;;;;;;5029525;28;20048;-74
2023/09/17 10:42:38;;;;;;;11.10;6.03;;;742.50;2432.00;;;;;;5022329;28;20033;-72
2023/09/17 10:45:07;;;;;;;10.52;6.78;;;742.60;2432.00;;;;;;5026578;28;20465;-74
2023/09/17 10:47:36;;;;;;;13.70;6.68;;;;;;;;;;5027140;28;20037;-73
2023/09/17 10:50:05;;;;;;;11.75;7.20;;;;;;;;;;5021854;28;20114;-74
2023/09/17 10:52:32;;;;;;;7.55;6.45;;;;;;;;;;5025050;28;20409;-73
2023/09/17 10:54:58;;;;;;;10.30;6.97;;;742.60;2380.80;;;;;;5027069;28;20021;-73
2023/09/17 10:57:47;;;;;;;14.85;6.72;;;743.10;2329.60;;;;;;5012413;28;20072;-74
2023/09/17 11:00:20;;;;;;;9.38;6.57;;;743.00;2304.00;;;;;;5035136;28;20083;-74
2023/09/17 11:02:55;;;;;;;15.57;7.35;;;742.80;2304.00;;;;;;5024160;28;20030;-73
2023/09/17 11:05:24;;;;;;;13.57;8.20;;;742.80;2304.00;;;;;;5013869;28;20375;-74
2023/09/17 11:07:58;;;;;;;14.85;6.82;;;743.30;2252.80;;;;;;5029265;28;20484;-73
2023/09/17 11:10:24;;;;;;;9.27;7.07;;;742.60;2304.00;;;;;;5021667;28;20038;-74
2023/09/17 11:12:51;;;;;;;12.75;7.90;;;742.60;2304.00;;;;;;5028656;28;20033;-73
2023/09/17 11:15:18;;;;;;;15.88;7.43;;;717.70;2304.00;;;;;;5027160;28;20500;-73
2023/09/17 11:17:47;;;;;;;12.65;6.72;;;742.50;2304.00;;;;;;5026442;28;20021;-73
2023/09/17 11:20:19;;;;;;;10.85;6.25;;;717.50;2329.60;;;;;;5032145;28;20520;-73
2023/09/17 11:22:50;;;;;;;11.25;5.35;;;717.40;2355.20;;;;;;5026503;28;20033;-73
2023/09/17 11:25:35;;;;;;;8.52;5.63;;;717.40;2380.80;;;;;;5022194;28;20047;-73
2023/09/17 11:28:12;;;;;;;11.45;4.43;;;717.20;2380.80;;;;;;5027858;28;20048;-74
2023/09/17 11:31:02;;;;;;;5.88;4.05;;;717.40;2432.00;;;;;;5026192;28;20021;-74
2023/09/17 11:33:29;;;;;;;8.13;3.60;;;742.90;2355.20;;;;;;5031497;28;20548;-73
2023/09/17 11:35:56;;;;;;;4.82;3.58;;;743.30;2252.80;;;;;;5022068;28;20030;-73
2023/09/17 11:38:26;;;;;;;6.90;4.63;;;743.30;2278.40;;;;;;5024117;28;20026;-74
2023/09/17 11:41:03;;;;;;;9.68;4.00;;;768.10;2201.60;;;;;;5029357;28;20017;-73
2023/09/17 11:43:29;;;;;;;5.63;4.35;;;743.10;2227.20;;;;;;5024844;28;20029;-73
2023/09/17 11:45:54;;;;;;;9.88;4.93;;;743.30;2201.60;;;;;;5025848;28;20026;-73
2023/09/17 11:48:21;;;;;;;7.28;4.22;;;743.30;2201.60;;;;;;5022269;28;20034;-73
2023/09/17 11:50:47;;;;;;;7.97;4.53;;;768.00;2176.00;;;;;;5024184;28;20017;-74
2023/09/17 11:53:14;;;;;;;6.28;4.63;;;768.40;2124.80;;;;;;5025681;28;20038;-73
2023/09/17 11:55:40;;;;;;;10.63;4.53;;;743.20;2150.40;;;;;;5028341;28;20071;-73
2023/09/17 11:58:18;;;;;;;7.28;3.90;;;742.90;2201.60;;;;;;5020907;28;20033;-74
2023/09/17 12:00:45;;;;;;;6.60;5.28;;;768.10;2176.00;;;;;;5025040;28;20045;-74
2023/09/17 12:03:16;;;;;;;6.57;4.63;;;768.30;2099.20;;;;;;5022396;28;20026;-73
2023/09/17 12:05:41;;;;;;;5.53;4.78;;;768.40;2099.20;;;;;;5027890;28;20009;-73